sensor_id;sensor_type;location;lat;lon;timestamp;P1;durP1;ratioP1;P2;durP2;ratioP2
20110;SDS011;10216;42.658;23.248;2023-06-22T00:00:48;10.33;;;6.37;;
20110;SDS011;10216;42.658;23.248;2023-06-22T00:03:14;7.07;;;6.40;;
20110;SDS011;10216;42.658;23.248;2023-06-22T00:05:39;7.00;;;6.40;;
20110;SDS011;10216;42.658;23.248;2023-06-22T00:08:05;6.40;;;5.90;;
20110;SDS011;10216;42.658;23.248;2023-06-22T00:10:30;7.90;;;6.77;;
20110;SDS011;10216;42.658;23.248;2023-06-22T00:12:56;8.33;;;7.17;;
20110;SDS011;10216;42.658;23.248;2023-06-22T00:15:21;7.50;;;6.80;;
20110;SDS011;10216;42.658;23.248;2023-06-22T00:17:46;6.93;;;6.23;;
20110;SDS011;10216;42.658;23.248;2023-06-22T00:20:12;7.17;;;6.57;;
20110;SDS011;10216;42.658;23.248;2023-06-22T00:22:39;7.60;;;6.40;;
20110;SDS011;10216;42.658;23.248;2023-06-22T00:25:06;6.83;;;6.30;;
20110;SDS011;10216;42.658;23.248;2023-06-22T00:27:32;8.50;;;6.70;;
20110;SDS011;10216;42.658;23.248;2023-06-22T00:29:57;8.27;;;6.37;;
20110;SDS011;10216;42.658;23.248;2023-06-22T00:32:23;6.73;;;6.13;;
20110;SDS011;10216;42.658;23.248;2023-06-22T00:34:48;6.50;;;5.90;;
20110;SDS011;10216;42.658;23.248;2023-06-22T00:37:15;8.53;;;6.33;;
20110;SDS011;10216;42.658;23.248;2023-06-22T00:39:40;6.80;;;6.20;;
20110;SDS011;10216;42.658;23.248;2023-06-22T00:42:06;7.57;;;6.60;;
20110;SDS011;10216;42.658;23.248;2023-06-22T00:44:31;16.17;;;6.60;;
20110;SDS011;10216;42.658;23.248;2023-06-22T00:46:57;7.43;;;6.07;;
20110;SDS011;10216;42.658;23.248;2023-06-22T00:49:25;7.17;;;6.47;;
20110;SDS011;10216;42.658;23.248;2023-06-22T00:51:50;6.87;;;6.27;;
20110;SDS011;10216;42.658;23.248;2023-06-22T00:54:16;5.97;;;5.47;;
20110;SDS011;10216;42.658;23.248;2023-06-22T00:56:50;7.13;;;6.57;;
20110;SDS011;10216;42.658;23.248;2023-06-22T00:59:19;6.87;;;6.17;;
20110;SDS011;10216;42.658;23.248;2023-06-22T01:01:45;7.17;;;6.57;;
20110;SDS011;10216;42.658;23.248;2023-06-22T01:04:10;7.87;;;6.53;;
20110;SDS011;10216;42.658;23.248;2023-06-22T01:06:38;7.13;;;6.53;;
20110;SDS011;10216;42.658;23.248;2023-06-22T01:09:12;9.57;;;6.67;;
20110;SDS011;10216;42.658;23.248;2023-06-22T01:12:02;8.33;;;7.10;;
20110;SDS011;10216;42.658;23.248;2023-06-22T01:14:35;6.90;;;6.20;;
20110;SDS011;10216;42.658;23.248;2023-06-22T01:17:07;7.73;;;7.03;;
20110;SDS011;10216;42.658;23.248;2023-06-22T01:19:47;7.40;;;6.70;;
20110;SDS011;10216;42.658;23.248;2023-06-22T01:22:20;7.10;;;6.50;;
20110;SDS011;10216;42.658;23.248;2023-06-22T01:24:57;7.23;;;6.53;;
20110;SDS011;10216;42.658;23.248;2023-06-22T01:30:06;8.37;;;7.57;;
20110;SDS011;10216;42.658;23.248;2023-06-22T01:32:35;8.30;;;7.53;;
20110;SDS011;10216;42.658;23.248;2023-06-22T01:35:03;9.73;;;7.63;;
20110;SDS011;10216;42.658;23.248;2023-06-22T01:37:30;11.80;;;8.23;;
20110;SDS011;10216;42.658;23.248;2023-06-22T01:39:58;10.13;;;8.17;;
20110;SDS011;10216;42.658;23.248;2023-06-22T01:42:24;9.70;;;8.27;;
20110;SDS011;10216;42.658;23.248;2023-06-22T01:44:51;9.80;;;8.83;;
20110;SDS011;10216;42.658;23.248;2023-06-22T01:47:18;9.87;;;8.47;;
20110;SDS011;10216;42.658;23.248;2023-06-22T01:49:45;9.30;;;8.30;;
20110;SDS011;10216;42.658;23.248;2023-06-22T01:52:11;8.83;;;8.00;;
20110;SDS011;10216;42.658;23.248;2023-06-22T01:54:37;9.63;;;8.63;;
20110;SDS011;10216;42.658;23.248;2023-06-22T01:57:03;8.90;;;8.03;;
20110;SDS011;10216;42.658;23.248;2023-06-22T01:59:32;9.43;;;8.60;;
20110;SDS011;10216;42.658;23.248;2023-06-22T02:02:06;9.07;;;8.17;;
20110;SDS011;10216;42.658;23.248;2023-06-22T02:04:36;8.73;;;7.93;;
20110;SDS011;10216;42.658;23.248;2023-06-22T02:07:11;9.53;;;8.63;;
20110;SDS011;10216;42.658;23.248;2023-06-22T02:09:39;9.60;;;8.03;;
20110;SDS011;10216;42.658;23.248;2023-06-22T02:12:08;8.77;;;7.87;;
20110;SDS011;10216;42.658;23.248;2023-06-22T02:14:37;10.37;;;8.10;;
20110;SDS011;10216;42.658;23.248;2023-06-22T02:17:03;8.77;;;7.93;;
20110;SDS011;10216;42.658;23.248;2023-06-22T02:19:32;9.33;;;8.53;;
20110;SDS011;10216;42.658;23.248;2023-06-22T02:22:01;9.63;;;8.53;;
20110;SDS011;10216;42.658;23.248;2023-06-22T02:24:27;9.47;;;8.47;;
20110;SDS011;10216;42.658;23.248;2023-06-22T02:26:55;8.80;;;7.97;;
20110;SDS011;10216;42.658;23.248;2023-06-22T02:29:22;8.80;;;8.00;;
20110;SDS011;10216;42.658;23.248;2023-06-22T02:31:48;9.43;;;8.63;;
20110;SDS011;10216;42.658;23.248;2023-06-22T02:34:13;8.90;;;8.10;;
20110;SDS011;10216;42.658;23.248;2023-06-22T02:36:43;8.30;;;7.50;;
20110;SDS011;10216;42.658;23.248;2023-06-22T02:39:15;8.37;;;7.53;;
20110;SDS011;10216;42.658;23.248;2023-06-22T02:41:46;8.17;;;7.37;;
20110;SDS011;10216;42.658;23.248;2023-06-22T02:44:12;8.27;;;7.53;;
20110;SDS011;10216;42.658;23.248;2023-06-22T02:46:37;8.80;;;8.00;;
20110;SDS011;10216;42.658;23.248;2023-06-22T02:49:03;8.80;;;7.90;;
20110;SDS011;10216;42.658;23.248;2023-06-22T02:51:28;8.90;;;8.00;;
20110;SDS011;10216;42.658;23.248;2023-06-22T02:53:54;8.70;;;7.90;;
20110;SDS011;10216;42.658;23.248;2023-06-22T02:56:22;10.03;;;7.93;;
20110;SDS011;10216;42.658;23.248;2023-06-22T02:58:50;9.93;;;7.93;;
20110;SDS011;10216;42.658;23.248;2023-06-22T03:01:16;8.27;;;7.63;;
20110;SDS011;10216;42.658;23.248;2023-06-22T03:03:41;8.73;;;7.93;;
20110;SDS011;10216;42.658;23.248;2023-06-22T03:06:06;8.70;;;7.90;;
20110;SDS011;10216;42.658;23.248;2023-06-22T03:08:32;8.90;;;7.90;;
20110;SDS011;10216;42.658;23.248;2023-06-22T03:10:57;9.97;;;8.10;;
20110;SDS011;10216;42.658;23.248;2023-06-22T03:13:23;9.10;;;8.30;;
20110;SDS011;10216;42.658;23.248;2023-06-22T03:15:48;8.90;;;8.07;;
20110;SDS011;10216;42.658;23.248;2023-06-22T03:18:14;8.77;;;7.87;;
20110;SDS011;10216;42.658;23.248;2023-06-22T03:20:40;9.07;;;8.17;;
20110;SDS011;10216;42.658;23.248;2023-06-22T03:23:06;8.53;;;7.83;;
20110;SDS011;10216;42.658;23.248;2023-06-22T03:25:31;8.77;;;8.07;;
20110;SDS011;10216;42.658;23.248;2023-06-22T03:27:58;8.50;;;7.70;;
20110;SDS011;10216;42.658;23.248;2023-06-22T03:30:26;9.33;;;8.47;;
20110;SDS011;10216;42.658;23.248;2023-06-22T03:32:51;11.27;;;9.70;;
20110;SDS011;10216;42.658;23.248;2023-06-22T03:35:16;15.20;;;13.80;;
20110;SDS011;10216;42.658;23.248;2023-06-22T03:37:42;12.43;;;11.27;;
20110;SDS011;10216;42.658;23.248;2023-06-22T03:40:07;9.87;;;8.73;;
20110;SDS011;10216;42.658;23.248;2023-06-22T03:42:33;9.33;;;8.47;;
20110;SDS011;10216;42.658;23.248;2023-06-22T03:45:00;10.10;;;9.20;;
20110;SDS011;10216;42.658;23.248;2023-06-22T03:47:26;10.20;;;9.30;;
20110;SDS011;10216;42.658;23.248;2023-06-22T03:49:51;10.97;;;8.60;;
20110;SDS011;10216;42.658;23.248;2023-06-22T03:52:19;10.50;;;9.40;;
20110;SDS011;10216;42.658;23.248;2023-06-22T03:54:45;10.67;;;9.57;;
20110;SDS011;10216;42.658;23.248;2023-06-22T03:57:11;10.37;;;9.37;;
20110;SDS011;10216;42.658;23.248;2023-06-22T03:59:36;10.43;;;9.53;;
20110;SDS011;10216;42.658;23.248;2023-06-22T04:02:01;11.27;;;10.07;;
20110;SDS011;10216;42.658;23.248;2023-06-22T04:04:27;11.70;;;9.57;;
20110;SDS011;10216;42.658;23.248;2023-06-22T04:06:53;10.97;;;9.87;;
20110;SDS011;10216;42.658;23.248;2023-06-22T04:09:18;11.40;;;9.73;;
20110;SDS011;10216;42.658;23.248;2023-06-22T04:11:43;10.80;;;9.57;;
20110;SDS011;10216;42.658;23.248;2023-06-22T04:14:09;11.57;;;10.37;;
20110;SDS011;10216;42.658;23.248;2023-06-22T04:16:34;12.10;;;10.80;;
20110;SDS011;10216;42.658;23.248;2023-06-22T04:19:00;11.97;;;10.97;;
20110;SDS011;10216;42.658;23.248;2023-06-22T04:21:25;13.20;;;11.90;;
20110;SDS011;10216;42.658;23.248;2023-06-22T04:23:50;12.50;;;10.90;;
20110;SDS011;10216;42.658;23.248;2023-06-22T04:26:16;11.93;;;10.70;;
20110;SDS011;10216;42.658;23.248;2023-06-22T04:28:41;11.43;;;10.30;;
20110;SDS011;10216;42.658;23.248;2023-06-22T04:31:06;12.83;;;10.00;;
20110;SDS011;10216;42.658;23.248;2023-06-22T04:33:32;11.97;;;10.47;;
20110;SDS011;10216;42.658;23.248;2023-06-22T04:35:58;13.77;;;9.63;;
20110;SDS011;10216;42.658;23.248;2023-06-22T04:38:26;12.53;;;10.33;;
20110;SDS011;10216;42.658;23.248;2023-06-22T04:40:51;14.10;;;10.83;;
20110;SDS011;10216;42.658;23.248;2023-06-22T04:43:18;18.00;;;10.97;;
20110;SDS011;10216;42.658;23.248;2023-06-22T04:45:44;17.40;;;10.53;;
20110;SDS011;10216;42.658;23.248;2023-06-22T04:48:09;12.27;;;10.47;;
20110;SDS011;10216;42.658;23.248;2023-06-22T04:50:35;13.00;;;11.57;;
20110;SDS011;10216;42.658;23.248;2023-06-22T04:53:03;15.53;;;11.30;;
20110;SDS011;10216;42.658;23.248;2023-06-22T04:55:30;18.07;;;11.73;;
20110;SDS011;10216;42.658;23.248;2023-06-22T04:57:56;14.60;;;10.87;;
20110;SDS011;10216;42.658;23.248;2023-06-22T05:00:29;16.87;;;10.90;;
20110;SDS011;10216;42.658;23.248;2023-06-22T05:02:55;13.53;;;10.67;;
20110;SDS011;10216;42.658;23.248;2023-06-22T05:05:22;15.47;;;11.00;;
20110;SDS011;10216;42.658;23.248;2023-06-22T05:07:49;14.97;;;10.33;;
20110;SDS011;10216;42.658;23.248;2023-06-22T05:10:18;16.10;;;10.40;;
20110;SDS011;10216;42.658;23.248;2023-06-22T05:12:44;14.57;;;10.80;;
20110;SDS011;10216;42.658;23.248;2023-06-22T05:15:09;11.60;;;10.50;;
20110;SDS011;10216;42.658;23.248;2023-06-22T05:17:35;15.03;;;11.20;;
20110;SDS011;10216;42.658;23.248;2023-06-22T05:20:02;16.63;;;11.00;;
20110;SDS011;10216;42.658;23.248;2023-06-22T05:22:31;14.47;;;10.60;;
20110;SDS011;10216;42.658;23.248;2023-06-22T05:24:56;13.37;;;11.27;;
20110;SDS011;10216;42.658;23.248;2023-06-22T05:27:21;15.80;;;11.80;;
20110;SDS011;10216;42.658;23.248;2023-06-22T05:29:47;12.57;;;11.27;;
20110;SDS011;10216;42.658;23.248;2023-06-22T05:32:12;17.93;;;11.70;;
20110;SDS011;10216;42.658;23.248;2023-06-22T05:34:38;20.23;;;12.50;;
20110;SDS011;10216;42.658;23.248;2023-06-22T05:37:04;17.50;;;13.30;;
20110;SDS011;10216;42.658;23.248;2023-06-22T05:39:29;23.17;;;15.33;;
20110;SDS011;10216;42.658;23.248;2023-06-22T05:41:55;16.03;;;13.97;;
20110;SDS011;10216;42.658;23.248;2023-06-22T05:44:21;20.10;;;14.10;;
20110;SDS011;10216;42.658;23.248;2023-06-22T05:46:46;15.57;;;13.90;;
20110;SDS011;10216;42.658;23.248;2023-06-22T05:49:13;19.40;;;14.43;;
20110;SDS011;10216;42.658;23.248;2023-06-22T05:51:39;23.03;;;14.83;;
20110;SDS011;10216;42.658;23.248;2023-06-22T05:54:05;22.40;;;14.50;;
20110;SDS011;10216;42.658;23.248;2023-06-22T05:56:30;19.57;;;13.50;;
20110;SDS011;10216;42.658;23.248;2023-06-22T05:58:55;18.33;;;13.83;;
20110;SDS011;10216;42.658;23.248;2023-06-22T06:01:21;18.10;;;13.67;;
20110;SDS011;10216;42.658;23.248;2023-06-22T06:03:46;23.80;;;16.03;;
20110;SDS011;10216;42.658;23.248;2023-06-22T06:06:12;21.30;;;14.20;;
20110;SDS011;10216;42.658;23.248;2023-06-22T06:08:38;15.47;;;13.27;;
20110;SDS011;10216;42.658;23.248;2023-06-22T06:11:04;16.57;;;13.43;;
20110;SDS011;10216;42.658;23.248;2023-06-22T06:13:30;20.03;;;13.03;;
20110;SDS011;10216;42.658;23.248;2023-06-22T06:15:55;18.00;;;13.73;;
20110;SDS011;10216;42.658;23.248;2023-06-22T06:18:21;15.40;;;11.80;;
20110;SDS011;10216;42.658;23.248;2023-06-22T06:20:46;16.63;;;12.77;;
20110;SDS011;10216;42.658;23.248;2023-06-22T06:23:12;15.93;;;12.97;;
20110;SDS011;10216;42.658;23.248;2023-06-22T06:25:37;14.67;;;13.17;;
20110;SDS011;10216;42.658;23.248;2023-06-22T06:28:03;18.27;;;13.77;;
20110;SDS011;10216;42.658;23.248;2023-06-22T06:30:28;15.67;;;12.03;;
20110;SDS011;10216;42.658;23.248;2023-06-22T06:32:54;19.53;;;12.10;;
20110;SDS011;10216;42.658;23.248;2023-06-22T06:35:20;14.20;;;11.10;;
20110;SDS011;10216;42.658;23.248;2023-06-22T06:37:47;12.40;;;11.10;;
20110;SDS011;10216;42.658;23.248;2023-06-22T06:40:14;16.93;;;11.20;;
20110;SDS011;10216;42.658;23.248;2023-06-22T06:42:41;16.03;;;11.00;;
20110;SDS011;10216;42.658;23.248;2023-06-22T06:45:11;14.00;;;11.57;;
20110;SDS011;10216;42.658;23.248;2023-06-22T06:47:38;11.70;;;10.40;;
20110;SDS011;10216;42.658;23.248;2023-06-22T06:50:04;12.60;;;10.03;;
20110;SDS011;10216;42.658;23.248;2023-06-22T06:52:30;16.47;;;9.67;;
20110;SDS011;10216;42.658;23.248;2023-06-22T06:54:56;11.57;;;9.63;;
20110;SDS011;10216;42.658;23.248;2023-06-22T06:57:21;15.90;;;9.27;;
20110;SDS011;10216;42.658;23.248;2023-06-22T06:59:47;10.65;;;9.57;;
20110;SDS011;10216;42.658;23.248;2023-06-22T07:02:14;12.55;;;9.70;;
20110;SDS011;10216;42.658;23.248;2023-06-22T07:04:40;13.10;;;8.65;;
20110;SDS011;10216;42.658;23.248;2023-06-22T07:07:06;17.15;;;9.68;;
20110;SDS011;10216;42.658;23.248;2023-06-22T07:09:31;11.60;;;9.55;;
20110;SDS011;10216;42.658;23.248;2023-06-22T07:11:57;14.70;;;10.18;;
20110;SDS011;10216;42.658;23.248;2023-06-22T07:14:22;10.48;;;9.00;;
20110;SDS011;10216;42.658;23.248;2023-06-22T07:16:47;11.10;;;9.75;;
20110;SDS011;10216;42.658;23.248;2023-06-22T07:19:13;12.38;;;9.60;;
20110;SDS011;10216;42.658;23.248;2023-06-22T07:21:38;10.32;;;9.38;;
20110;SDS011;10216;42.658;23.248;2023-06-22T07:24:07;10.85;;;8.45;;
20110;SDS011;10216;42.658;23.248;2023-06-22T07:26:32;10.93;;;9.80;;
20110;SDS011;10216;42.658;23.248;2023-06-22T07:28:58;9.77;;;8.88;;
20110;SDS011;10216;42.658;23.248;2023-06-22T07:31:24;9.05;;;7.95;;
20110;SDS011;10216;42.658;23.248;2023-06-22T07:33:51;9.43;;;8.63;;
20110;SDS011;10216;42.658;23.248;2023-06-22T07:36:17;9.63;;;8.73;;
20110;SDS011;10216;42.658;23.248;2023-06-22T07:38:43;11.45;;;9.18;;
20110;SDS011;10216;42.658;23.248;2023-06-22T07:41:08;10.35;;;9.20;;
20110;SDS011;10216;42.658;23.248;2023-06-22T07:43:33;9.98;;;8.68;;
20110;SDS011;10216;42.658;23.248;2023-06-22T07:46:02;10.45;;;9.35;;
20110;SDS011;10216;42.658;23.248;2023-06-22T07:48:28;9.90;;;8.48;;
20110;SDS011;10216;42.658;23.248;2023-06-22T07:50:54;10.07;;;9.07;;
20110;SDS011;10216;42.658;23.248;2023-06-22T07:53:20;11.00;;;8.77;;
20110;SDS011;10216;42.658;23.248;2023-06-22T07:55:48;9.95;;;8.85;;
20110;SDS011;10216;42.658;23.248;2023-06-22T07:58:13;11.93;;;10.13;;
20110;SDS011;10216;42.658;23.248;2023-06-22T08:00:39;11.43;;;10.30;;
20110;SDS011;10216;42.658;23.248;2023-06-22T08:03:04;10.65;;;9.65;;
20110;SDS011;10216;42.658;23.248;2023-06-22T08:05:30;13.23;;;10.05;;
20110;SDS011;10216;42.658;23.248;2023-06-22T08:07:56;10.45;;;9.45;;
20110;SDS011;10216;42.658;23.248;2023-06-22T08:10:21;11.05;;;8.60;;
20110;SDS011;10216;42.658;23.248;2023-06-22T08:12:46;11.77;;;10.40;;
20110;SDS011;10216;42.658;23.248;2023-06-22T08:15:12;10.80;;;9.75;;
20110;SDS011;10216;42.658;23.248;2023-06-22T08:17:37;10.27;;;9.20;;
20110;SDS011;10216;42.658;23.248;2023-06-22T08:20:03;10.40;;;9.07;;
20110;SDS011;10216;42.658;23.248;2023-06-22T08:22:35;10.60;;;9.50;;
20110;SDS011;10216;42.658;23.248;2023-06-22T08:25:01;9.57;;;8.73;;
20110;SDS011;10216;42.658;23.248;2023-06-22T08:27:29;10.68;;;9.57;;
20110;SDS011;10216;42.658;23.248;2023-06-22T08:29:57;14.02;;;9.23;;
20110;SDS011;10216;42.658;23.248;2023-06-22T08:32:24;10.63;;;9.55;;
20110;SDS011;10216;42.658;23.248;2023-06-22T08:34:51;11.13;;;9.30;;
20110;SDS011;10216;42.658;23.248;2023-06-22T08:37:17;10.15;;;9.18;;
20110;SDS011;10216;42.658;23.248;2023-06-22T08:39:42;10.20;;;9.40;;
20110;SDS011;10216;42.658;23.248;2023-06-22T08:42:08;10.65;;;8.95;;
20110;SDS011;10216;42.658;23.248;2023-06-22T08:44:33;10.55;;;9.45;;
20110;SDS011;10216;42.658;23.248;2023-06-22T08:46:59;9.45;;;8.57;;
20110;SDS011;10216;42.658;23.248;2023-06-22T08:49:24;8.90;;;8.10;;
20110;SDS011;10216;42.658;23.248;2023-06-22T08:51:49;9.18;;;8.30;;
20110;SDS011;10216;42.658;23.248;2023-06-22T08:54:17;9.65;;;8.70;;
20110;SDS011;10216;42.658;23.248;2023-06-22T08:56:42;8.82;;;7.88;;
20110;SDS011;10216;42.658;23.248;2023-06-22T08:59:09;8.57;;;7.78;;
20110;SDS011;10216;42.658;23.248;2023-06-22T09:01:34;8.13;;;7.43;;
20110;SDS011;10216;42.658;23.248;2023-06-22T09:04:00;7.90;;;6.75;;
20110;SDS011;10216;42.658;23.248;2023-06-22T09:06:26;7.75;;;6.90;;
20110;SDS011;10216;42.658;23.248;2023-06-22T09:08:51;7.70;;;7.10;;
20110;SDS011;10216;42.658;23.248;2023-06-22T09:11:17;8.77;;;7.15;;
20110;SDS011;10216;42.658;23.248;2023-06-22T09:13:42;7.93;;;7.13;;
20110;SDS011;10216;42.658;23.248;2023-06-22T09:16:08;8.00;;;7.30;;
20110;SDS011;10216;42.658;23.248;2023-06-22T09:18:36;7.88;;;7.28;;
20110;SDS011;10216;42.658;23.248;2023-06-22T09:21:02;8.15;;;7.45;;
20110;SDS011;10216;42.658;23.248;2023-06-22T09:29:18;8.07;;;7.38;;
20110;SDS011;10216;42.658;23.248;2023-06-22T09:32:20;8.15;;;7.45;;
20110;SDS011;10216;42.658;23.248;2023-06-22T09:34:46;7.90;;;7.10;;
20110;SDS011;10216;42.658;23.248;2023-06-22T09:37:11;8.77;;;7.50;;
20110;SDS011;10216;42.658;23.248;2023-06-22T09:39:37;8.48;;;7.70;;
20110;SDS011;10216;42.658;23.248;2023-06-22T09:42:02;8.48;;;7.80;;
20110;SDS011;10216;42.658;23.248;2023-06-22T09:44:28;9.95;;;7.93;;
20110;SDS011;10216;42.658;23.248;2023-06-22T09:46:53;8.45;;;7.70;;
20110;SDS011;10216;42.658;23.248;2023-06-22T09:49:18;7.80;;;7.10;;
20110;SDS011;10216;42.658;23.248;2023-06-22T09:51:44;8.55;;;7.50;;
20110;SDS011;10216;42.658;23.248;2023-06-22T09:54:09;8.18;;;7.35;;
20110;SDS011;10216;42.658;23.248;2023-06-22T09:56:34;7.93;;;7.18;;
20110;SDS011;10216;42.658;23.248;2023-06-22T09:59:00;8.07;;;7.28;;
20110;SDS011;10216;42.658;23.248;2023-06-22T10:01:25;7.70;;;6.93;;
20110;SDS011;10216;42.658;23.248;2023-06-22T10:03:52;7.38;;;6.68;;
20110;SDS011;10216;42.658;23.248;2023-06-22T10:06:19;7.13;;;6.53;;
20110;SDS011;10216;42.658;23.248;2023-06-22T10:08:45;7.38;;;6.78;;
20110;SDS011;10216;42.658;23.248;2023-06-22T10:11:10;8.07;;;7.30;;
20110;SDS011;10216;42.658;23.248;2023-06-22T10:13:36;7.80;;;6.60;;
20110;SDS011;10216;42.658;23.248;2023-06-22T10:16:01;7.07;;;6.32;;
20110;SDS011;10216;42.658;23.248;2023-06-22T10:18:26;7.38;;;6.68;;
20110;SDS011;10216;42.658;23.248;2023-06-22T10:20:52;7.32;;;6.72;;
20110;SDS011;10216;42.658;23.248;2023-06-22T10:23:18;6.50;;;5.90;;
20110;SDS011;10216;42.658;23.248;2023-06-22T10:25:44;7.10;;;6.40;;
20110;SDS011;10216;42.658;23.248;2023-06-22T10:28:10;6.55;;;5.95;;
20110;SDS011;10216;42.658;23.248;2023-06-22T10:30:35;6.93;;;5.93;;
20110;SDS011;10216;42.658;23.248;2023-06-22T10:33:00;8.38;;;6.60;;
20110;SDS011;10216;42.658;23.248;2023-06-22T10:35:26;7.05;;;6.03;;
20110;SDS011;10216;42.658;23.248;2023-06-22T10:37:52;7.05;;;6.28;;
20110;SDS011;10216;42.658;23.248;2023-06-22T10:40:19;7.20;;;6.50;;
20110;SDS011;10216;42.658;23.248;2023-06-22T10:42:45;8.00;;;6.55;;
20110;SDS011;10216;42.658;23.248;2023-06-22T10:45:10;7.10;;;6.50;;
20110;SDS011;10216;42.658;23.248;2023-06-22T10:47:36;7.32;;;6.63;;
20110;SDS011;10216;42.658;23.248;2023-06-22T10:50:02;7.70;;;7.00;;
20110;SDS011;10216;42.658;23.248;2023-06-22T10:52:28;6.80;;;6.22;;
20110;SDS011;10216;42.658;23.248;2023-06-22T10:54:53;8.10;;;7.03;;
20110;SDS011;10216;42.658;23.248;2023-06-22T10:57:19;7.22;;;6.55;;
20110;SDS011;10216;42.658;23.248;2023-06-22T10:59:46;7.70;;;7.00;;
20110;SDS011;10216;42.658;23.248;2023-06-22T11:02:12;6.82;;;6.28;;
20110;SDS011;10216;42.658;23.248;2023-06-22T11:04:38;7.22;;;6.53;;
20110;SDS011;10216;42.658;23.248;2023-06-22T11:07:03;7.30;;;6.47;;
20110;SDS011;10216;42.658;23.248;2023-06-22T11:09:29;7.13;;;6.55;;
20110;SDS011;10216;42.658;23.248;2023-06-22T11:11:55;6.65;;;6.15;;
20110;SDS011;10216;42.658;23.248;2023-06-22T11:14:21;8.98;;;6.93;;
20110;SDS011;10216;42.658;23.248;2023-06-22T11:16:47;7.38;;;6.78;;
20110;SDS011;10216;42.658;23.248;2023-06-22T11:19:13;7.45;;;6.85;;
20110;SDS011;10216;42.658;23.248;2023-06-22T11:21:38;7.20;;;6.50;;
20110;SDS011;10216;42.658;23.248;2023-06-22T11:24:04;9.70;;;6.85;;
20110;SDS011;10216;42.658;23.248;2023-06-22T11:26:29;6.93;;;6.20;;
20110;SDS011;10216;42.658;23.248;2023-06-22T11:28:55;7.95;;;6.90;;
20110;SDS011;10216;42.658;23.248;2023-06-22T11:31:20;7.13;;;6.45;;
20110;SDS011;10216;42.658;23.248;2023-06-22T11:33:46;6.88;;;6.38;;
20110;SDS011;10216;42.658;23.248;2023-06-22T11:36:12;7.75;;;7.10;;
20110;SDS011;10216;42.658;23.248;2023-06-22T11:38:39;7.70;;;7.03;;
20110;SDS011;10216;42.658;23.248;2023-06-22T11:41:05;8.00;;;7.30;;
20110;SDS011;10216;42.658;23.248;2023-06-22T11:43:31;8.13;;;7.45;;
20110;SDS011;10216;42.658;23.248;2023-06-22T11:45:56;9.07;;;7.85;;
20110;SDS011;10216;42.658;23.248;2023-06-22T11:48:23;9.45;;;7.10;;
20110;SDS011;10216;42.658;23.248;2023-06-22T11:50:49;11.93;;;7.95;;
20110;SDS011;10216;42.658;23.248;2023-06-22T11:53:15;11.27;;;8.38;;
20110;SDS011;10216;42.658;23.248;2023-06-22T11:55:42;9.35;;;8.55;;
20110;SDS011;10216;42.658;23.248;2023-06-22T11:58:10;9.30;;;8.45;;
20110;SDS011;10216;42.658;23.248;2023-06-22T12:00:36;10.25;;;9.35;;
20110;SDS011;10216;42.658;23.248;2023-06-22T12:03:02;10.55;;;9.55;;
20110;SDS011;10216;42.658;23.248;2023-06-22T12:05:27;10.05;;;9.15;;
20110;SDS011;10216;42.658;23.248;2023-06-22T12:07:53;10.93;;;10.05;;
20110;SDS011;10216;42.658;23.248;2023-06-22T12:10:20;11.35;;;10.15;;
20110;SDS011;10216;42.658;23.248;2023-06-22T12:12:46;10.82;;;9.80;;
20110;SDS011;10216;42.658;23.248;2023-06-22T12:15:11;10.80;;;9.80;;
20110;SDS011;10216;42.658;23.248;2023-06-22T12:17:37;11.35;;;10.48;;
20110;SDS011;10216;42.658;23.248;2023-06-22T12:20:02;12.45;;;10.77;;
20110;SDS011;10216;42.658;23.248;2023-06-22T12:22:31;10.98;;;9.98;;
20110;SDS011;10216;42.658;23.248;2023-06-22T12:24:57;11.60;;;10.48;;
20110;SDS011;10216;42.658;23.248;2023-06-22T12:27:22;10.77;;;9.88;;
20110;SDS011;10216;42.658;23.248;2023-06-22T12:29:48;13.95;;;11.30;;
20110;SDS011;10216;42.658;23.248;2023-06-22T12:32:13;13.48;;;12.07;;
20110;SDS011;10216;42.658;23.248;2023-06-22T12:34:43;15.20;;;13.27;;
20110;SDS011;10216;42.658;23.248;2023-06-22T12:37:09;18.15;;;13.30;;
20110;SDS011;10216;42.658;23.248;2023-06-22T12:39:35;14.70;;;13.20;;
20110;SDS011;10216;42.658;23.248;2023-06-22T12:42:00;16.00;;;12.00;;
20110;SDS011;10216;42.658;23.248;2023-06-22T12:44:26;15.03;;;11.03;;
20110;SDS011;10216;42.658;23.248;2023-06-22T12:46:51;24.90;;;13.67;;
20110;SDS011;10216;42.658;23.248;2023-06-22T12:49:17;15.93;;;12.47;;
20110;SDS011;10216;42.658;23.248;2023-06-22T12:51:43;13.50;;;11.87;;
20110;SDS011;10216;42.658;23.248;2023-06-22T12:54:09;13.97;;;12.50;;
20110;SDS011;10216;42.658;23.248;2023-06-22T12:56:35;15.90;;;11.27;;
20110;SDS011;10216;42.658;23.248;2023-06-22T12:59:00;13.53;;;12.10;;
20110;SDS011;10216;42.658;23.248;2023-06-22T13:01:29;14.27;;;9.87;;
20110;SDS011;10216;42.658;23.248;2023-06-22T13:03:55;11.20;;;10.03;;
20110;SDS011;10216;42.658;23.248;2023-06-22T13:06:21;11.37;;;8.77;;
20110;SDS011;10216;42.658;23.248;2023-06-22T13:08:47;9.93;;;8.93;;
20110;SDS011;10216;42.658;23.248;2023-06-22T13:11:13;9.70;;;8.73;;
20110;SDS011;10216;42.658;23.248;2023-06-22T13:13:38;10.87;;;9.40;;
20110;SDS011;10216;42.658;23.248;2023-06-22T13:16:04;10.70;;;9.60;;
20110;SDS011;10216;42.658;23.248;2023-06-22T13:18:29;11.80;;;10.43;;
20110;SDS011;10216;42.658;23.248;2023-06-22T13:20:54;12.40;;;10.67;;
20110;SDS011;10216;42.658;23.248;2023-06-22T13:23:20;11.30;;;10.10;;
20110;SDS011;10216;42.658;23.248;2023-06-22T13:25:46;9.97;;;8.97;;
20110;SDS011;10216;42.658;23.248;2023-06-22T13:28:12;10.53;;;9.53;;
20110;SDS011;10216;42.658;23.248;2023-06-22T13:30:39;12.00;;;9.20;;
20110;SDS011;10216;42.658;23.248;2023-06-22T13:33:05;12.43;;;9.83;;
20110;SDS011;10216;42.658;23.248;2023-06-22T13:35:30;11.83;;;10.47;;
20110;SDS011;10216;42.658;23.248;2023-06-22T13:37:56;11.90;;;9.73;;
20110;SDS011;10216;42.658;23.248;2023-06-22T13:40:21;10.80;;;9.80;;
20110;SDS011;10216;42.658;23.248;2023-06-22T13:42:46;10.67;;;9.60;;
20110;SDS011;10216;42.658;23.248;2023-06-22T13:45:12;11.47;;;10.10;;
20110;SDS011;10216;42.658;23.248;2023-06-22T13:47:37;10.40;;;9.50;;
20110;SDS011;10216;42.658;23.248;2023-06-22T13:50:03;12.40;;;10.33;;
20110;SDS011;10216;42.658;23.248;2023-06-22T13:52:28;11.73;;;10.53;;
20110;SDS011;10216;42.658;23.248;2023-06-22T13:54:54;11.67;;;10.47;;
20110;SDS011;10216;42.658;23.248;2023-06-22T13:57:19;13.27;;;11.90;;
20110;SDS011;10216;42.658;23.248;2023-06-22T13:59:45;12.27;;;11.17;;
20110;SDS011;10216;42.658;23.248;2023-06-22T14:02:11;12.33;;;11.03;;
20110;SDS011;10216;42.658;23.248;2023-06-22T14:04:36;11.17;;;10.07;;
20110;SDS011;10216;42.658;23.248;2023-06-22T14:07:01;10.43;;;9.43;;
20110;SDS011;10216;42.658;23.248;2023-06-22T14:09:27;12.20;;;11.00;;
20110;SDS011;10216;42.658;23.248;2023-06-22T14:11:53;11.97;;;10.87;;
20110;SDS011;10216;42.658;23.248;2023-06-22T14:14:20;13.67;;;11.60;;
20110;SDS011;10216;42.658;23.248;2023-06-22T14:16:45;13.00;;;11.67;;
20110;SDS011;10216;42.658;23.248;2023-06-22T14:19:11;12.63;;;11.07;;
20110;SDS011;10216;42.658;23.248;2023-06-22T14:21:36;13.63;;;11.47;;
20110;SDS011;10216;42.658;23.248;2023-06-22T14:24:02;15.07;;;12.53;;
20110;SDS011;10216;42.658;23.248;2023-06-22T14:26:27;14.13;;;12.93;;